Time;durP1;ratioP1;P1;durP2;ratioP2;P2;SDS_P1;SDS_P2;PMS_P1;PMS_P2;Temp;Humidity;BMP_temperature;BMP_pressure;BME280_temperature;BME280_humidity;BME280_pressure;Samples;Min_cycle;Max_cycle;Signal;HPM_P1;HPM_P2
2022/07/24 00:00:11;;;;;;;5.13;3.10;;;15.80;99.90;;;;;;5066701;28;20037;-90
2022/07/24 00:02:37;;;;;;;3.70;2.45;;;15.80;99.90;;;;;;5049948;28;20036;-90
2022/07/24 00:05:02;;;;;;;2.60;2.38;;;15.90;99.90;;;;;;5054225;28;20063;-90
2022/07/24 00:07:28;;;;;;;2.80;2.53;;;15.60;99.90;;;;;;5028996;28;20132;-90
2022/07/24 00:09:54;;;;;;;2.30;2.10;;;15.80;99.90;;;;;;5053290;28;20037;-91
2022/07/24 00:12:20;;;;;;;5.88;3.28;;;15.80;99.90;;;;;;5070551;28;20441;-91
2022/07/24 00:14:46;;;;;;;5.13;2.97;;;15.70;99.90;;;;;;5053835;28;20045;-91
2022/07/24 00:17:11;;;;;;;3.42;2.58;;;16.00;99.90;;;;;;5053372;28;20102;-90
2022/07/24 00:19:37;;;;;;;3.05;2.80;;;16.40;99.90;;;;;;5047770;28;20451;-90
2022/07/24 00:22:03;;;;;;;7.00;3.10;;;16.00;99.90;;;;;;5064595;28;20067;-90
2022/07/24 00:24:29;;;;;;;4.25;3.20;;;15.80;99.90;;;;;;5036623;28;21518;-90
2022/07/24 00:26:55;;;;;;;6.60;3.67;;;15.60;99.90;;;;;;5053705;28;20033;-91
2022/07/24 00:29:20;;;;;;;4.90;3.50;;;15.60;99.90;;;;;;5046431;28;20498;-90
2022/07/24 00:31:46;;;;;;;3.75;3.35;;;15.80;99.90;;;;;;5052628;28;20104;-90
2022/07/24 00:34:12;;;;;;;4.57;3.35;;;15.70;99.90;;;;;;5049795;28;20506;-90
2022/07/24 00:36:37;;;;;;;4.18;3.38;;;16.20;99.90;;;;;;5050001;28;20123;-90
2022/07/24 00:39:03;;;;;;;7.82;3.80;;;15.70;99.90;;;;;;5072945;28;20036;-89
2022/07/24 00:41:29;;;;;;;4.32;3.63;;;15.60;99.90;;;;;;5073040;28;20601;-89
2022/07/24 00:44:09;;;;;;;4.57;4.15;;;15.60;99.90;;;;;;5060336;28;20120;-89
2022/07/24 00:46:36;;;;;;;5.50;4.53;;;15.60;99.90;;;;;;5052300;28;20040;-88
2022/07/24 00:49:05;;;;;;;4.75;4.35;;;15.60;99.90;;;;;;5053862;28;20051;-89
2022/07/24 00:51:31;;;;;;;5.00;4.53;;;15.60;99.90;;;;;;5039177;28;20495;-88
2022/07/24 00:53:56;;;;;;;5.10;4.60;;;15.50;99.90;;;;;;5073046;28;20067;-89
2022/07/24 00:56:22;;;;;;;7.93;5.00;;;15.50;99.90;;;;;;5063981;28;20510;-89
2022/07/24 00:58:48;;;;;;;5.55;4.75;;;15.70;99.90;;;;;;5057640;28;20049;-89
2022/07/24 01:01:15;;;;;;;6.20;4.53;;;15.50;99.90;;;;;;5043743;28;20535;-89
2022/07/24 01:03:41;;;;;;;7.60;5.68;;;15.50;99.90;;;;;;5048299;28;20039;-89
2022/07/24 01:06:06;;;;;;;6.40;5.20;;;15.70;99.90;;;;;;5036299;28;20388;-88
2022/07/24 01:08:34;;;;;;;10.48;5.43;;;15.50;99.90;;;;;;5061177;28;20044;-88
2022/07/24 01:11:01;;;;;;;5.50;4.63;;;15.50;99.90;;;;;;5040133;28;20037;-88
2022/07/24 01:13:28;;;;;;;9.43;4.85;;;15.40;99.90;;;;;;5052826;28;20448;-89
2022/07/24 01:15:53;;;;;;;5.95;5.25;;;15.50;99.90;;;;;;5042363;28;20119;-90
2022/07/24 01:18:19;;;;;;;5.70;5.20;;;15.90;99.90;;;;;;5054369;28;20131;-90
2022/07/24 01:20:48;;;;;;;6.50;4.72;;;15.40;99.90;;;;;;5055190;28;20033;-89
2022/07/24 01:23:14;;;;;;;7.07;5.43;;;15.70;99.90;;;;;;5036336;28;20033;-89
2022/07/24 01:25:40;;;;;;;6.93;5.30;;;15.40;99.90;;;;;;5064367;28;20119;-90
2022/07/24 01:28:06;;;;;;;8.90;5.65;;;15.40;99.90;;;;;;5054442;28;20076;-89
2022/07/24 01:30:32;;;;;;;5.57;5.07;;;15.30;99.90;;;;;;5067787;28;20114;-89
2022/07/24 01:32:58;;;;;;;8.43;5.40;;;15.30;99.90;;;;;;5034820;28;20070;-89
2022/07/24 01:35:24;;;;;;;5.20;4.80;;;15.20;99.90;;;;;;5053415;28;20116;-89
2022/07/24 01:37:52;;;;;;;6.88;6.15;;;15.30;99.90;;;;;;5054102;28;20132;-89
2022/07/24 01:40:19;;;;;;;5.38;4.88;;;15.20;99.90;;;;;;5051655;28;20047;-89
2022/07/24 01:42:45;;;;;;;6.03;5.57;;;15.20;99.90;;;;;;5056017;28;20124;-89
2022/07/24 01:45:10;;;;;;;6.88;5.88;;;15.20;99.90;;;;;;5053631;28;20446;-90
2022/07/24 01:47:36;;;;;;;7.63;6.07;;;15.20;99.90;;;;;;5067328;28;20452;-90
2022/07/24 01:50:02;;;;;;;6.70;6.10;;;15.30;99.90;;;;;;5053232;28;20036;-89
2022/07/24 01:52:28;;;;;;;6.72;6.10;;;15.20;99.90;;;;;;5049548;28;20036;-90
2022/07/24 01:54:53;;;;;;;6.65;6.07;;;15.30;99.90;;;;;;5033668;28;20098;-90
2022/07/24 01:57:19;;;;;;;6.95;6.25;;;15.20;99.90;;;;;;5059678;28;20562;-90
2022/07/24 01:59:46;;;;;;;9.07;6.38;;;15.20;99.90;;;;;;5058371;28;20120;-90
2022/07/24 02:02:12;;;;;;;7.65;6.90;;;15.70;99.90;;;;;;5033722;28;20083;-88
2022/07/24 02:04:38;;;;;;;7.43;6.70;;;15.20;99.90;;;;;;5038162;28;20068;-88
2022/07/24 02:07:03;;;;;;;7.28;6.60;;;15.20;99.90;;;;;;5070650;28;20490;-89
2022/07/24 02:09:29;;;;;;;6.78;6.07;;;15.20;99.90;;;;;;5065678;28;20031;-89
2022/07/24 02:11:55;;;;;;;7.80;5.72;;;15.20;99.90;;;;;;5038480;28;20098;-89
2022/07/24 02:14:21;;;;;;;6.57;5.88;;;15.20;99.90;;;;;;5052783;28;20040;-89
2022/07/24 02:16:47;;;;;;;6.55;5.95;;;15.20;99.90;;;;;;5051891;28;20419;-89
2022/07/24 02:19:13;;;;;;;6.70;6.03;;;15.20;99.90;;;;;;5053843;28;20051;-90
2022/07/24 02:21:38;;;;;;;7.00;6.47;;;15.20;99.90;;;;;;5052267;28;20063;-89
2022/07/24 02:24:04;;;;;;;8.23;7.10;;;15.20;99.90;;;;;;5051195;28;20032;-90
2022/07/24 02:26:30;;;;;;;6.68;5.82;;;15.20;99.90;;;;;;5052996;28;20036;-90
2022/07/24 02:28:56;;;;;;;7.65;6.32;;;15.40;99.90;;;;;;5056988;28;20060;-90
2022/07/24 02:31:22;;;;;;;7.18;6.38;;;15.80;99.90;;;;;;5052811;28;20507;-90
2022/07/24 02:33:48;;;;;;;6.80;6.20;;;15.20;99.90;;;;;;5051265;28;20048;-90
2022/07/24 02:36:13;;;;;;;6.70;6.10;;;15.40;99.90;;;;;;5057033;28;20040;-90
2022/07/24 02:38:41;;;;;;;6.03;5.50;;;15.30;99.90;;;;;;5053059;28;20648;-89
2022/07/24 02:41:07;;;;;;;6.47;5.95;;;15.30;99.90;;;;;;5045308;28;20044;-90
2022/07/24 02:43:33;;;;;;;6.63;5.65;;;15.30;99.90;;;;;;5038225;28;20032;-89
2022/07/24 02:45:58;;;;;;;6.20;5.70;;;15.30;99.90;;;;;;5041060;28;20035;-90
2022/07/24 02:48:24;;;;;;;10.75;5.88;;;15.30;99.90;;;;;;5070161;28;20036;-90
2022/07/24 02:50:50;;;;;;;8.75;5.95;;;15.20;99.90;;;;;;5050965;28;20473;-89
2022/07/24 02:53:15;;;;;;;6.30;5.28;;;15.80;99.90;;;;;;5031655;28;20079;-90
2022/07/24 02:55:41;;;;;;;6.20;5.60;;;15.30;99.90;;;;;;5064406;28;20040;-91
2022/07/24 02:58:06;;;;;;;8.52;5.55;;;15.20;99.90;;;;;;5048976;28;20091;-89
2022/07/24 03:00:32;;;;;;;6.60;5.80;;;15.30;99.90;;;;;;5051580;28;20078;-89
2022/07/24 03:02:59;;;;;;;6.32;5.78;;;15.40;99.90;;;;;;5054220;28;20029;-89
2022/07/24 03:05:25;;;;;;;6.30;5.75;;;15.50;99.90;;;;;;5036390;28;20032;-89
2022/07/24 03:07:50;;;;;;;7.25;5.90;;;15.40;99.90;;;;;;5034048;28;20486;-88
2022/07/24 03:10:16;;;;;;;7.65;5.88;;;15.60;99.90;;;;;;5053647;28;20047;-89
2022/07/24 03:12:42;;;;;;;6.68;5.50;;;15.70;99.90;;;;;;5038337;28;20044;-89
2022/07/24 03:15:08;;;;;;;8.30;5.18;;;15.70;99.90;;;;;;5038502;28;20040;-89
2022/07/24 03:17:34;;;;;;;6.68;5.63;;;15.50;99.90;;;;;;5038297;28;20052;-89
2022/07/24 03:20:00;;;;;;;6.07;5.63;;;15.70;99.90;;;;;;5053744;28;20043;-88
2022/07/24 03:22:25;;;;;;;5.90;5.38;;;15.50;99.90;;;;;;5055737;28;20506;-88
2022/07/24 03:24:51;;;;;;;5.75;5.22;;;15.60;99.90;;;;;;5052240;28;20033;-88
2022/07/24 03:27:17;;;;;;;6.50;5.90;;;16.00;99.90;;;;;;5048215;28;20617;-87
2022/07/24 03:29:42;;;;;;;8.55;5.70;;;15.60;99.90;;;;;;5050930;28;20044;-89
2022/07/24 03:32:08;;;;;;;6.10;5.50;;;15.60;99.90;;;;;;5060626;28;20117;-89
2022/07/24 03:34:33;;;;;;;5.93;5.43;;;15.60;99.90;;;;;;5053673;28;20037;-88
2022/07/24 03:36:59;;;;;;;5.65;5.20;;;15.70;99.90;;;;;;5048247;28;20037;-89
2022/07/24 03:39:25;;;;;;;6.50;5.85;;;15.50;99.90;;;;;;5036920;28;20040;-90
2022/07/24 03:41:51;;;;;;;8.18;5.32;;;15.50;99.90;;;;;;5036882;28;20029;-88
2022/07/24 03:44:16;;;;;;;6.78;5.05;;;15.40;99.90;;;;;;5057865;28;20043;-88
2022/07/24 03:46:42;;;;;;;6.70;6.00;;;15.60;99.90;;;;;;5051908;28;20391;-88
2022/07/24 03:49:08;;;;;;;5.35;4.95;;;15.40;99.90;;;;;;5066314;28;20502;-89
2022/07/24 03:51:34;;;;;;;6.55;5.68;;;15.50;99.90;;;;;;5054176;28;20052;-89
2022/07/24 03:54:02;;;;;;;5.53;5.13;;;15.50;99.90;;;;;;5036301;28;20037;-88
2022/07/24 03:56:28;;;;;;;6.00;5.50;;;15.50;99.90;;;;;;5048954;28;20410;-89
2022/07/24 03:58:54;;;;;;;6.97;5.95;;;15.90;99.90;;;;;;5051179;28;20044;-89
2022/07/24 04:01:21;;;;;;;5.70;5.30;;;15.50;99.90;;;;;;5061848;28;20433;-89
2022/07/24 04:03:46;;;;;;;5.95;5.32;;;16.30;99.90;;;;;;5047200;28;20482;-89
2022/07/24 04:06:12;;;;;;;6.20;5.47;;;15.50;99.90;;;;;;5069767;28;20032;-88
2022/07/24 04:08:38;;;;;;;6.07;5.53;;;15.60;99.90;;;;;;5059837;28;20036;-89
2022/07/24 04:11:04;;;;;;;6.90;5.97;;;15.50;99.90;;;;;;5032970;28;20454;-89
2022/07/24 04:13:30;;;;;;;6.10;5.47;;;15.60;99.90;;;;;;5066560;28;20495;-89
2022/07/24 04:15:56;;;;;;;6.20;5.63;;;15.70;99.90;;;;;;5072520;28;20116;-89
2022/07/24 04:18:23;;;;;;;7.95;5.55;;;15.80;99.90;;;;;;5053138;28;20051;-89
2022/07/24 04:20:49;;;;;;;6.10;4.85;;;15.70;99.90;;;;;;5044170;28;20453;-88
2022/07/24 04:23:15;;;;;;;7.15;5.68;;;15.90;99.90;;;;;;5055852;28;20372;-88
2022/07/24 04:25:41;;;;;;;7.13;5.40;;;16.10;99.90;;;;;;5052033;28;20505;-88
2022/07/24 04:28:06;;;;;;;5.70;5.30;;;16.30;99.90;;;;;;5053889;28;20048;-88
2022/07/24 04:30:32;;;;;;;5.82;5.30;;;16.00;99.90;;;;;;5052924;28;20036;-88
2022/07/24 04:32:58;;;;;;;5.68;5.20;;;16.10;99.90;;;;;;5056537;28;20044;-88
2022/07/24 04:35:24;;;;;;;5.18;4.78;;;16.20;99.90;;;;;;5056185;28;20055;-87
2022/07/24 04:37:50;;;;;;;5.30;4.90;;;16.20;99.90;;;;;;5071082;28;20040;-89
2022/07/24 04:40:16;;;;;;;6.75;5.57;;;16.30;99.90;;;;;;5056175;28;20198;-87
2022/07/24 04:42:41;;;;;;;5.63;5.13;;;16.40;99.90;;;;;;5068739;28;20426;-87
2022/07/24 04:45:09;;;;;;;6.50;5.75;;;16.50;99.90;;;;;;5040989;28;20105;-88
2022/07/24 04:47:35;;;;;;;5.72;5.20;;;16.60;99.90;;;;;;5036755;28;20032;-87
2022/07/24 04:50:02;;;;;;;7.55;5.70;;;16.60;99.90;;;;;;5056071;28;20471;-88
2022/07/24 04:52:28;;;;;;;6.13;4.90;;;17.00;99.90;;;;;;5047444;28;20041;-87
2022/07/24 04:54:53;;;;;;;5.50;5.00;;;16.80;99.90;;;;;;5055862;28;20039;-87
2022/07/24 04:57:19;;;;;;;5.45;4.85;;;17.20;99.90;;;;;;5070916;28;20479;-87
2022/07/24 04:59:44;;;;;;;5.57;4.75;;;17.10;99.90;;;;;;5069625;28;20041;-87
2022/07/24 05:02:10;;;;;;;5.32;4.93;;;17.00;99.90;;;;;;5066875;28;20041;-87
2022/07/24 05:04:36;;;;;;;8.93;5.40;;;17.20;99.90;;;;;;5050963;28;20570;-87
2022/07/24 05:07:03;;;;;;;7.88;5.40;;;17.20;99.90;;;;;;5054777;28;20028;-87
2022/07/24 05:09:28;;;;;;;5.40;4.90;;;17.40;99.90;;;;;;5037058;28;20040;-87
2022/07/24 05:11:54;;;;;;;8.27;5.45;;;17.50;99.90;;;;;;5056709;28;20045;-87
2022/07/24 05:14:20;;;;;;;6.45;5.47;;;17.50;99.90;;;;;;5054062;28;20048;-87
2022/07/24 05:16:45;;;;;;;6.15;5.57;;;17.50;99.90;;;;;;5049972;28;20098;-86
2022/07/24 05:19:12;;;;;;;6.22;4.97;;;17.60;99.90;;;;;;5054398;28;20062;-86
2022/07/24 05:21:37;;;;;;;6.35;5.63;;;17.80;99.90;;;;;;5055926;28;20539;-87
2022/07/24 05:24:03;;;;;;;6.38;5.22;;;18.00;99.90;;;;;;5070967;28;20032;-87
2022/07/24 05:26:31;;;;;;;5.20;4.70;;;18.60;99.90;;;;;;5067284;28;20055;-87
2022/07/24 05:29:01;;;;;;;5.75;5.25;;;19.40;99.90;;;;;;5054333;28;20036;-88
2022/07/24 05:31:28;;;;;;;6.05;5.43;;;19.60;99.90;;;;;;5052875;28;20029;-87
2022/07/24 05:33:53;;;;;;;5.57;5.05;;;20.30;99.90;;;;;;5068530;28;20948;-87
2022/07/24 05:36:19;;;;;;;5.90;5.40;;;19.90;99.90;;;;;;5051869;28;20056;-87
2022/07/24 05:38:45;;;;;;;6.15;5.65;;;20.10;99.90;;;;;;5056735;28;20051;-87
2022/07/24 05:41:12;;;;;;;6.30;5.57;;;20.10;99.90;;;;;;5062168;28;20044;-87
2022/07/24 05:43:38;;;;;;;5.90;5.40;;;20.30;99.90;;;;;;5052293;28;20040;-88
2022/07/24 05:46:04;;;;;;;6.53;5.93;;;20.40;99.90;;;;;;5066851;28;20040;-87
2022/07/24 05:48:30;;;;;;;6.20;5.50;;;20.30;99.90;;;;;;5038234;28;20040;-88
2022/07/24 05:50:56;;;;;;;9.38;6.25;;;20.30;99.90;;;;;;5063777;28;20487;-88
2022/07/24 05:53:22;;;;;;;7.75;5.97;;;20.10;99.90;;;;;;5068772;28;20568;-87
2022/07/24 05:55:48;;;;;;;7.57;6.78;;;20.30;99.90;;;;;;5043908;28;20037;-88
2022/07/24 05:58:14;;;;;;;9.05;6.63;;;20.00;99.90;;;;;;5035597;28;20045;-87
2022/07/24 06:00:40;;;;;;;7.13;6.38;;;20.00;99.90;;;;;;5067505;28;20087;-87
2022/07/24 06:03:05;;;;;;;6.60;5.93;;;20.30;99.90;;;;;;5055357;28;20175;-87
2022/07/24 06:05:31;;;;;;;9.98;6.97;;;21.00;99.90;;;;;;5048697;28;20112;-88
2022/07/24 06:07:57;;;;;;;9.27;7.47;;;21.40;99.90;;;;;;5065511;28;20037;-87
2022/07/24 06:10:22;;;;;;;8.45;6.75;;;21.90;99.90;;;;;;5051184;28;20111;-87
2022/07/24 06:12:48;;;;;;;7.32;6.60;;;22.20;99.90;;;;;;5048073;28;20045;-87
2022/07/24 06:15:13;;;;;;;7.22;6.43;;;22.60;99.90;;;;;;5057118;28;20052;-88
2022/07/24 06:17:40;;;;;;;10.90;6.68;;;23.00;99.90;;;;;;5056574;28;20479;-87
2022/07/24 06:20:06;;;;;;;7.20;6.50;;;23.30;99.90;;;;;;5067375;28;20475;-87
2022/07/24 06:22:32;;;;;;;6.60;5.97;;;23.50;99.90;;;;;;5048900;28;20515;-87
2022/07/24 06:24:57;;;;;;;8.68;7.03;;;23.90;99.90;;;;;;5054042;28;20075;-87
2022/07/24 06:27:23;;;;;;;7.03;6.40;;;23.90;99.90;;;;;;5054324;28;20040;-88
2022/07/24 06:29:49;;;;;;;7.72;7.03;;;24.10;99.90;;;;;;5053745;28;20045;-87
2022/07/24 06:32:14;;;;;;;8.45;7.63;;;24.20;99.90;;;;;;5050701;28;20040;-87
2022/07/24 06:34:40;;;;;;;13.98;8.35;;;24.50;99.90;;;;;;5071357;28;20089;-87
2022/07/24 06:37:05;;;;;;;8.95;8.05;;;24.50;99.90;;;;;;5048866;28;20398;-87
2022/07/24 06:39:31;;;;;;;8.55;7.68;;;24.50;99.90;;;;;;5050393;28;20048;-87
2022/07/24 06:41:56;;;;;;;9.00;8.02;;;24.90;99.90;;;;;;5066392;28;20040;-88
2022/07/24 06:44:22;;;;;;;8.43;7.47;;;24.80;99.90;;;;;;5049374;28;20040;-88
2022/07/24 06:46:48;;;;;;;9.85;8.60;;;25.20;99.90;;;;;;5052113;28;20504;-87
2022/07/24 06:49:14;;;;;;;9.38;8.48;;;25.30;99.90;;;;;;5064300;28;20410;-87
2022/07/24 06:51:39;;;;;;;8.68;7.97;;;25.30;99.90;;;;;;5049782;28;20044;-87
2022/07/24 06:54:05;;;;;;;8.70;7.90;;;25.40;99.90;;;;;;5064951;28;20072;-88
2022/07/24 06:56:31;;;;;;;9.95;8.38;;;25.30;99.90;;;;;;5069957;28;20052;-87
2022/07/24 06:58:58;;;;;;;12.25;8.63;;;25.60;99.90;;;;;;5068767;28;20037;-88
2022/07/24 07:01:25;;;;;;;9.27;8.35;;;25.80;99.90;;;;;;5044850;28;20102;-88
2022/07/24 07:03:52;;;;;;;11.90;9.35;;;25.90;99.90;;;;;;5034407;28;20040;-87
2022/07/24 07:06:17;;;;;;;11.50;8.82;;;26.00;99.90;;;;;;5065507;28;20124;-89
2022/07/24 07:08:43;;;;;;;9.10;8.30;;;26.00;99.90;;;;;;5049258;28;20508;-87
2022/07/24 07:11:09;;;;;;;8.63;7.82;;;25.80;99.90;;;;;;5066709;28;20048;-88
2022/07/24 07:13:36;;;;;;;9.60;8.10;;;26.10;99.90;;;;;;5070002;28;20037;-88
2022/07/24 07:16:01;;;;;;;8.13;7.32;;;26.20;99.90;;;;;;5054197;28;20090;-88
2022/07/24 07:18:27;;;;;;;9.63;7.70;;;26.30;99.90;;;;;;5054806;28;20040;-89
2022/07/24 07:20:53;;;;;;;7.75;7.00;;;26.30;99.90;;;;;;5045200;28;20071;-90
2022/07/24 07:23:22;;;;;;;8.52;7.63;;;26.40;99.90;;;;;;5053808;28;20044;-89
2022/07/24 07:25:48;;;;;;;8.93;7.28;;;26.50;99.90;;;;;;5058587;28;20379;-89
2022/07/24 07:28:13;;;;;;;8.30;6.43;;;26.60;99.90;;;;;;5050590;28;20036;-90
2022/07/24 07:30:39;;;;;;;12.63;6.72;;;26.70;99.90;;;;;;5054280;28;20051;-89
2022/07/24 07:33:05;;;;;;;9.32;8.30;;;26.90;99.90;;;;;;5064881;28;20040;-88
2022/07/24 07:35:30;;;;;;;15.30;8.07;;;27.10;99.90;;;;;;5050585;28;20048;-89
2022/07/24 07:37:56;;;;;;;12.88;7.55;;;27.10;99.90;;;;;;5044250;28;20037;-86
2022/07/24 07:40:23;;;;;;;12.45;7.07;;;27.20;99.90;;;;;;5047711;28;20406;-86
2022/07/24 07:42:49;;;;;;;9.98;7.10;;;27.30;99.90;;;;;;5061616;28;20033;-87
2022/07/24 07:45:18;;;;;;;7.55;6.25;;;27.40;99.90;;;;;;5043554;28;20043;-90
2022/07/24 07:47:45;;;;;;;13.68;5.70;;;27.70;99.90;;;;;;5047951;28;20032;-90
2022/07/24 07:50:14;;;;;;;10.18;4.72;;;27.70;99.90;;;;;;5059271;28;20497;-92
2022/07/24 07:52:40;;;;;;;7.07;5.22;;;27.50;99.90;;;;;;5035595;28;20063;-91
2022/07/24 07:55:06;;;;;;;6.88;4.28;;;27.50;99.90;;;;;;5039772;28;20753;-91
2022/07/24 07:57:32;;;;;;;6.50;4.80;;;27.40;99.90;;;;;;5055953;28;20037;-90
2022/07/24 07:59:58;;;;;;;5.97;3.90;;;27.30;99.90;;;;;;5062410;28;20044;-93
2022/07/24 08:02:24;;;;;;;10.45;4.15;;;27.50;99.90;;;;;;5058135;28;20047;-92
2022/07/24 08:04:49;;;;;;;9.13;4.22;;;27.80;99.90;;;;;;5068403;28;20060;-89
2022/07/24 08:07:15;;;;;;;11.60;4.60;;;28.00;99.90;;;;;;5056802;28;20043;-89
2022/07/24 08:09:41;;;;;;;4.00;3.38;;;27.70;99.90;;;;;;5049603;28;20033;-91
2022/07/24 08:12:07;;;;;;;16.80;4.50;;;27.70;99.90;;;;;;5057646;28;20121;-89
2022/07/24 08:14:32;;;;;;;5.38;2.92;;;27.40;99.90;;;;;;5052334;28;20036;-90
2022/07/24 08:17:12;;;;;;;11.52;3.40;;;27.40;99.90;;;;;;5050703;28;20484;-91
2022/07/24 08:19:38;;;;;;;8.18;3.90;;;27.40;99.90;;;;;;5048147;28;20049;-90
2022/07/24 08:22:04;;;;;;;5.07;3.50;;;27.40;99.90;;;;;;5052755;28;20098;-92
2022/07/24 08:24:40;;;;;;;3.85;3.35;;;27.20;99.90;;;;;;5080539;28;20032;-92
2022/07/24 08:27:06;;;;;;;22.92;4.30;;;27.30;99.90;;;;;;5055253;28;20037;-90
2022/07/24 08:29:31;;;;;;;8.05;3.42;;;27.40;99.90;;;;;;5050619;28;20109;-90
2022/07/24 08:31:57;;;;;;;6.47;3.00;;;27.50;99.90;;;;;;5073181;28;20037;-90
2022/07/24 08:34:23;;;;;;;4.25;2.60;;;27.40;99.90;;;;;;5046947;28;20048;-90
2022/07/24 08:36:49;;;;;;;5.00;3.20;;;27.20;99.90;;;;;;5049879;28;20133;-90
2022/07/24 08:39:15;;;;;;;3.50;2.95;;;27.20;99.90;;;;;;5038216;28;20048;-90
2022/07/24 08:41:42;;;;;;;3.40;2.55;;;27.10;99.90;;;;;;5057052;28;20033;-90
2022/07/24 08:44:09;;;;;;;2.35;2.13;;;27.10;99.90;;;;;;5054824;28;20116;-90
2022/07/24 08:46:40;;;;;;;4.97;2.40;;;27.60;99.90;;;;;;5041918;28;20047;-90
2022/07/24 08:49:14;;;;;;;4.75;2.30;;;27.40;99.90;;;;;;5055246;28;20153;-89
2022/07/24 08:51:42;;;;;;;3.28;2.40;;;27.60;99.90;;;;;;5057745;28;20056;-90
2022/07/24 08:54:09;;;;;;;2.72;2.13;;;27.80;99.90;;;;;;5051521;28;20052;-90
2022/07/24 08:56:41;;;;;;;4.78;2.13;;;28.20;99.90;;;;;;5049514;28;20376;-90
2022/07/24 08:59:20;;;;;;;5.10;2.63;;;28.20;99.50;;;;;;5052253;28;20064;-90
2022/07/24 09:01:48;;;;;;;2.85;2.15;;;28.00;99.70;;;;;;5051256;28;20466;-90
2022/07/24 09:04:43;;;;;;;3.58;2.40;;;27.90;99.90;;;;;;5052860;28;20044;-90
2022/07/24 09:07:15;;;;;;;8.43;3.78;;;27.70;99.90;;;;;;5056938;28;20041;-90
2022/07/24 09:09:42;;;;;;;4.70;2.10;;;27.60;99.90;;;;;;5054988;28;20159;-91
2022/07/24 09:12:17;;;;;;;5.05;2.50;;;27.90;99.90;;;;;;5055657;28;20044;-90
2022/07/24 09:14:47;;;;;;;3.67;2.33;;;28.00;99.80;;;;;;5037058;28;20045;-91
2022/07/24 09:17:21;;;;;;;2.47;2.15;;;28.10;99.90;;;;;;5074983;28;20045;-90
2022/07/24 09:19:58;;;;;;;2.85;1.92;;;28.40;99.60;;;;;;5054284;28;20047;-90
2022/07/24 09:22:41;;;;;;;3.97;2.20;;;28.40;99.40;;;;;;5058361;28;20048;-89
2022/07/24 09:25:07;;;;;;;3.05;1.55;;;28.40;99.70;;;;;;5071836;28;20036;-91
2022/07/24 09:27:34;;;;;;;3.63;1.70;;;28.00;99.20;;;;;;5054362;28;20095;-91
2022/07/24 09:30:01;;;;;;;4.10;1.98;;;27.80;99.20;;;;;;5066018;28;20044;-91
2022/07/24 09:32:26;;;;;;;3.17;1.63;;;27.70;99.80;;;;;;5040803;28;20071;-91
2022/07/24 09:34:53;;;;;;;9.52;2.22;;;27.80;99.60;;;;;;5053192;28;20526;-91
2022/07/24 09:37:20;;;;;;;5.93;1.60;;;28.00;99.90;;;;;;5049984;28;20055;-91
2022/07/24 09:39:46;;;;;;;3.97;1.52;;;28.40;99.70;;;;;;5065962;28;20527;-91
2022/07/24 09:42:12;;;;;;;5.03;1.48;;;28.60;99.00;;;;;;5068233;28;20075;-90
2022/07/24 09:44:39;;;;;;;4.03;1.20;;;28.70;98.50;;;;;;5048420;28;20036;-91
2022/07/24 09:47:10;;;;;;;5.13;1.75;;;28.80;98.10;;;;;;5056647;28;20064;-90
2022/07/24 09:49:37;;;;;;;2.22;1.27;;;29.00;98.00;;;;;;5051139;28;20094;-91
2022/07/24 09:52:14;;;;;;;2.22;1.50;;;29.20;98.40;;;;;;5074812;28;20089;-91
2022/07/24 09:54:45;;;;;;;2.92;1.83;;;29.20;98.20;;;;;;5066072;28;20052;-90
2022/07/24 09:57:25;;;;;;;5.70;1.88;;;29.20;98.30;;;;;;5056451;28;20036;-93
2022/07/24 09:59:57;;;;;;;5.30;1.70;;;29.30;98.10;;;;;;5051246;28;20072;-93
2022/07/24 10:02:31;;;;;;;3.95;1.63;;;29.40;98.40;;;;;;5046502;28;20036;-91
2022/07/24 10:04:59;;;;;;;3.63;1.60;;;29.50;97.40;;;;;;5052435;28;20059;-91
2022/07/24 10:07:27;;;;;;;22.25;3.15;;;29.60;97.40;;;;;;5038041;28;20040;-92
2022/07/24 10:09:56;;;;;;;15.77;1.80;;;29.50;97.20;;;;;;5054395;28;20052;-91
2022/07/24 10:12:28;;;;;;;7.50;1.58;;;29.50;97.30;;;;;;5056313;28;20051;-91
2022/07/24 10:14:59;;;;;;;2.53;1.50;;;29.50;97.00;;;;;;5052615;28;20078;-91
2022/07/24 10:17:47;;;;;;;12.95;1.90;;;29.50;97.30;;;;;;5041005;28;20087;-90
2022/07/24 10:20:37;;;;;;;4.18;1.42;;;29.50;97.40;;;;;;5053218;28;20056;-89
2022/07/24 10:23:05;;;;;;;9.30;2.55;;;29.70;97.80;;;;;;5054256;28;20148;-89
2022/07/24 10:25:51;;;;;;;5.82;1.80;;;29.80;96.60;;;;;;5050147;28;20139;-89
2022/07/24 10:28:37;;;;;;;27.30;4.07;;;29.90;97.30;;;;;;5067860;28;20509;-90
2022/07/24 10:31:07;;;;;;;10.57;1.88;;;29.60;96.10;;;;;;5059510;28;20155;-90
2022/07/24 10:33:35;;;;;;;2.10;1.23;;;29.20;96.40;;;;;;5026976;28;20047;-90
2022/07/24 10:36:03;;;;;;;5.60;1.58;;;28.80;96.70;;;;;;5048910;28;20048;-89
2022/07/24 10:38:41;;;;;;;2.15;1.40;;;28.80;97.10;;;;;;5053223;28;20124;-90
2022/07/24 10:41:17;;;;;;;5.45;1.50;;;28.80;97.30;;;;;;5053370;28;20052;-90
2022/07/24 10:44:13;;;;;;;8.65;1.77;;;28.60;96.70;;;;;;5070578;28;20056;-89
2022/07/24 10:47:05;;;;;;;3.38;1.50;;;28.70;96.60;;;;;;5046788;28;20052;-90
2022/07/24 10:49:40;;;;;;;6.65;1.60;;;28.80;97.40;;;;;;5051645;28;20040;-90
2022/07/24 10:52:06;;;;;;;5.38;1.90;;;29.00;97.10;;;;;;5051045;28;20529;-90
2022/07/24 10:54:32;;;;;;;3.78;1.58;;;29.00;96.90;;;;;;5052435;28;20079;-90
2022/07/24 10:56:57;;;;;;;5.85;1.42;;;28.90;97.00;;;;;;5047680;28;20066;-90
2022/07/24 10:59:37;;;;;;;3.10;1.50;;;29.30;97.20;;;;;;5048688;28;20033;-89
2022/07/24 11:02:32;;;;;;;7.38;1.48;;;29.20;97.00;;;;;;5047021;28;20057;-89
2022/07/24 11:05:31;;;;;;;6.80;1.63;;;29.30;97.80;;;;;;5048745;28;20045;-90
2022/07/24 11:08:12;;;;;;;3.88;1.80;;;29.40;96.20;;;;;;5056008;28;20364;-89
2022/07/24 11:10:54;;;;;;;11.93;2.25;;;29.60;97.10;;;;;;5039703;28;20079;-89
2022/07/24 11:13:32;;;;;;;5.30;1.70;;;29.60;96.50;;;;;;5036093;28;20436;-89
2022/07/24 11:16:16;;;;;;;3.45;1.42;;;29.70;96.50;;;;;;5066392;28;20041;-89
2022/07/24 11:19:02;;;;;;;7.00;1.70;;;29.70;97.20;;;;;;5051072;28;20070;-89
2022/07/24 11:21:28;;;;;;;6.65;1.98;;;30.00;96.40;;;;;;5053762;28;20518;-89
2022/07/24 11:24:22;;;;;;;7.07;1.63;;;29.80;96.70;;;;;;5051803;28;20040;-88
2022/07/24 11:26:56;;;;;;;3.55;1.83;;;29.80;95.10;;;;;;5067810;28;20119;-89
2022/07/24 11:29:32;;;;;;;2.00;1.38;;;29.80;95.70;;;;;;5060565;28;20075;-89
2022/07/24 11:32:07;;;;;;;3.97;1.73;;;29.80;96.50;;;;;;5050183;28;20091;-89
2022/07/24 11:34:35;;;;;;;3.03;1.30;;;29.80;95.00;;;;;;5049658;28;20513;-88
2022/07/24 11:37:01;;;;;;;4.57;1.30;;;29.80;96.50;;;;;;5066089;28;20482;-85
2022/07/24 11:39:31;;;;;;;1.80;1.38;;;29.90;96.50;;;;;;5048815;28;20135;-86
2022/07/24 11:42:02;;;;;;;1.88;1.65;;;29.80;96.70;;;;;;5033048;28;20040;-86
2022/07/24 11:44:31;;;;;;;5.65;1.52;;;29.90;95.90;;;;;;5031163;28;20037;-91
2022/07/24 11:47:11;;;;;;;4.32;1.50;;;29.80;95.80;;;;;;5049615;28;20048;-88
2022/07/24 11:49:41;;;;;;;6.43;1.83;;;29.80;94.90;;;;;;5044458;28;20091;-83
2022/07/24 11:52:07;;;;;;;2.60;1.85;;;29.80;94.80;;;;;;5043368;28;20076;-83
2022/07/24 11:54:33;;;;;;;3.33;1.63;;;29.60;95.40;;;;;;5031530;28;20056;-83
2022/07/24 11:56:59;;;;;;;6.75;1.92;;;29.60;95.70;;;;;;5057612;28;20110;-84
2022/07/24 11:59:32;;;;;;;2.72;1.45;;;29.70;96.50;;;;;;5064112;28;20041;-82
2022/07/24 12:02:06;;;;;;;4.40;2.08;;;29.80;95.40;;;;;;5030765;28;20040;-82
2022/07/24 12:04:33;;;;;;;13.27;2.30;;;29.90;95.50;;;;;;5045190;28;20471;-82
2022/07/24 12:06:59;;;;;;;3.72;1.73;;;29.60;95.20;;;;;;5043983;28;20135;-81
2022/07/24 12:09:35;;;;;;;;;;;;;;;;;;;;;
2022/07/24 12:16:16;;;;;;;;;;;;;;;;;;;;;
2022/07/24 12:23:54;;;;;;;6.95;1.80;;;29.50;95.40;;;;;;4988694;28;20069;-84
2022/07/24 12:26:56;;;;;;;2.75;2.03;;;29.50;95.90;;;;;;4962865;28;20098;-82
2022/07/24 12:30:01;;;;;;;;;;;;;;;;;;;;;
2022/07/24 12:32:33;;;;;;;6.30;1.75;;;29.50;95.50;;;;;;4960865;28;20041;-82
2022/07/24 12:35:10;;;;;;;2.08;1.25;;;29.20;95.50;;;;;;5056188;28;20039;-82
2022/07/24 12:38:12;;;;;;;3.72;1.70;;;29.60;95.70;;;;;;5043256;28;20044;-84
2022/07/24 12:41:38;;;;;;;4.57;1.60;;;29.60;95.20;;;;;;5033466;28;20194;-82
2022/07/24 12:44:46;;;;;;;2.85;1.75;;;29.80;95.80;;;;;;4955836;28;20052;-85
2022/07/24 12:48:01;;;;;;;1.73;1.45;;;29.80;95.70;;;;;;5026904;28;20033;-86
2022/07/24 12:50:32;;;;;;;2.78;1.50;;;29.90;94.90;;;;;;5042185;28;20043;-84
2022/07/24 12:53:25;;;;;;;8.73;2.05;;;29.70;95.20;;;;;;5027938;28;20028;-83
2022/07/24 12:56:51;;;;;;;3.63;1.83;;;29.60;95.60;;;;;;5041239;28;20048;-84
2022/07/24 12:59:46;;;;;;;2.58;1.83;;;29.70;94.90;;;;;;5005420;28;20052;-83
2022/07/24 13:02:25;;;;;;;10.65;2.15;;;29.70;95.50;;;;;;5054917;28;20056;-84
2022/07/24 13:05:02;;;;;;;5.20;1.80;;;29.70;94.80;;;;;;5038952;28;20094;-84
2022/07/24 13:07:43;;;;;;;2.78;1.70;;;29.80;95.00;;;;;;5041987;28;20048;-83
2022/07/24 13:10:17;;;;;;;2.10;1.58;;;29.80;95.00;;;;;;5055307;28;20049;-83